createdAt,value
2023-01-26T00:01:36.445Z,101022.50
2023-01-26T00:04:04.549Z,101013.47
2023-01-26T00:06:31.814Z,101022.53
2023-01-26T00:08:59.345Z,101019.69
2023-01-26T00:11:29.523Z,101006.53
2023-01-26T00:13:59.404Z,101008.38
2023-01-26T00:16:27.979Z,101010.75
2023-01-26T00:18:55.686Z,101008.47
2023-01-26T00:21:24.480Z,101010.47
2023-01-26T00:23:53.208Z,101015.03
2023-01-26T00:26:23.902Z,101007.94
2023-01-26T00:28:52.870Z,101001.91
2023-01-26T00:31:21.709Z,100999.88
2023-01-26T00:33:49.477Z,100996.88
2023-01-26T00:36:16.896Z,101001.16
2023-01-26T00:38:44.548Z,100993.47
2023-01-26T00:41:34.496Z,100997.44
2023-01-26T00:44:02.262Z,100996.06
2023-01-26T00:46:29.952Z,101005.25
2023-01-26T00:48:57.658Z,100998.13
2023-01-26T00:51:24.903Z,100990.66
2023-01-26T00:53:52.476Z,100983.28
2023-01-26T00:56:19.822Z,100973.53
2023-01-26T00:58:47.348Z,100975.63
2023-01-26T01:01:14.657Z,100976.81
2023-01-26T01:03:43.302Z,100969.19
2023-01-26T01:06:10.597Z,100951.84
2023-01-26T01:08:38.048Z,100963.91
2023-01-26T01:11:10.621Z,100961.94
2023-01-26T01:13:38.941Z,100956.53
2023-01-26T01:16:07.889Z,100947.28
2023-01-26T01:18:36.214Z,100942.66
2023-01-26T01:21:11.902Z,100946.75
2023-01-26T01:23:39.474Z,100953.94
2023-01-26T01:26:07.170Z,100957.19
2023-01-26T01:28:36.279Z,100943.09
2023-01-26T01:31:08.427Z,100940.47
2023-01-26T01:33:36.654Z,100937.31
2023-01-26T01:36:06.462Z,100954.25
2023-01-26T01:38:34.611Z,100937.09
2023-01-26T01:41:03.639Z,100943.69
2023-01-26T01:43:31.339Z,100948.00
2023-01-26T01:46:01.638Z,100934.47
2023-01-26T01:48:37.528Z,100949.44
2023-01-26T01:51:16.972Z,100942.38
2023-01-26T01:53:48.488Z,100935.47
2023-01-26T01:56:21.739Z,100928.25
2023-01-26T01:58:53.781Z,100927.91
2023-01-26T02:01:21.514Z,100924.94
2023-01-26T02:03:53.455Z,100924.94
2023-01-26T02:06:42.265Z,100924.00
2023-01-26T02:09:30.548Z,100920.41
2023-01-26T02:11:59.644Z,100921.16
2023-01-26T02:14:29.605Z,100912.59
2023-01-26T02:16:57.139Z,100916.34
2023-01-26T02:19:52.446Z,100908.19
2023-01-26T02:22:30.041Z,100911.38
2023-01-26T02:25:03.641Z,100912.31
2023-01-26T02:27:32.230Z,100903.22
2023-01-26T02:30:02.213Z,100892.16
2023-01-26T02:32:30.343Z,100904.53
2023-01-26T02:34:58.224Z,100896.34
2023-01-26T02:37:25.860Z,100885.81
2023-01-26T02:40:02.449Z,100885.03
2023-01-26T02:42:39.192Z,100871.03
2023-01-26T02:45:08.051Z,100867.88
2023-01-26T02:47:35.975Z,100873.31
2023-01-26T02:50:05.587Z,100882.56
2023-01-26T02:52:33.553Z,100874.94
2023-01-26T02:55:31.057Z,100872.19
2023-01-26T02:58:02.057Z,100867.59
2023-01-26T03:00:42.152Z,100880.69
2023-01-26T03:03:19.740Z,100858.88
2023-01-26T03:05:47.507Z,100876.66
2023-01-26T03:08:15.462Z,100876.03
2023-01-26T03:10:44.120Z,100877.41
2023-01-26T03:13:11.716Z,100872.13
2023-01-26T03:15:48.109Z,100876.06
2023-01-26T03:18:36.044Z,100883.25
2023-01-26T03:21:24.994Z,100874.97
2023-01-26T03:24:10.978Z,100867.22
2023-01-26T03:26:57.843Z,100879.16
2023-01-26T03:29:26.752Z,100877.34
2023-01-26T03:31:59.353Z,100865.75
2023-01-26T03:34:27.422Z,100872.88
2023-01-26T03:36:54.764Z,100878.34
2023-01-26T03:39:40.960Z,100866.84
2023-01-26T03:42:27.335Z,100876.66
2023-01-26T03:45:13.381Z,100870.09
2023-01-26T03:48:01.310Z,100862.25
2023-01-26T03:50:48.868Z,100860.88
2023-01-26T03:53:40.360Z,100847.13
2023-01-26T03:56:24.963Z,100859.31
2023-01-26T03:58:58.033Z,100866.28
2023-01-26T04:01:29.055Z,100850.78
2023-01-26T04:04:17.421Z,100862.75
2023-01-26T04:07:07.687Z,100858.91
2023-01-26T04:09:37.641Z,100853.81
2023-01-26T04:12:06.174Z,100845.78
2023-01-26T04:14:56.606Z,100847.91
2023-01-26T04:17:45.073Z,100850.34
2023-01-26T04:20:32.365Z,100851.97
2023-01-26T04:22:59.887Z,100839.94
2023-01-26T04:25:27.721Z,100843.91
2023-01-26T04:27:57.560Z,100846.09
2023-01-26T04:30:24.981Z,100841.50
2023-01-26T04:32:52.900Z,100833.56
2023-01-26T04:35:20.163Z,100830.84
2023-01-26T04:37:48.622Z,100823.78
2023-01-26T04:40:16.044Z,100816.28
2023-01-26T04:42:43.644Z,100825.75
2023-01-26T04:45:11.637Z,100826.09
2023-01-26T04:47:39.946Z,100834.41
2023-01-26T04:50:07.898Z,100836.91
2023-01-26T04:52:35.530Z,100830.00
2023-01-26T04:55:02.829Z,100831.66
2023-01-26T04:57:32.611Z,100823.97
2023-01-26T05:00:02.085Z,100828.25
2023-01-26T05:02:30.121Z,100824.25
2023-01-26T05:04:57.419Z,100834.28
2023-01-26T05:07:25.853Z,100832.28
2023-01-26T05:09:53.770Z,100830.19
2023-01-26T05:12:53.727Z,100835.84
2023-01-26T05:15:40.555Z,100819.16
2023-01-26T05:18:15.368Z,100823.53
2023-01-26T05:21:04.775Z,100829.00
2023-01-26T05:23:46.606Z,100826.44
2023-01-26T05:26:23.416Z,100821.44
2023-01-26T05:28:56.576Z,100828.16
2023-01-26T05:31:23.959Z,100838.31
2023-01-26T05:33:52.980Z,100831.84
2023-01-26T05:36:23.276Z,100838.72
2023-01-26T05:38:51.214Z,100839.00
2023-01-26T05:41:23.298Z,100840.94
2023-01-26T05:44:20.095Z,100842.44
2023-01-26T05:47:02.014Z,100834.59
2023-01-26T05:49:30.055Z,100833.41
2023-01-26T05:51:57.903Z,100844.66
2023-01-26T05:54:26.008Z,100846.44
2023-01-26T05:56:53.560Z,100846.28
2023-01-26T05:59:21.220Z,100844.44
2023-01-26T06:01:48.484Z,100855.00
2023-01-26T06:04:17.340Z,100836.88
2023-01-26T06:06:56.117Z,100834.28
2023-01-26T06:09:33.387Z,100846.69
2023-01-26T06:12:22.829Z,100845.41
2023-01-26T06:15:12.875Z,100850.47
2023-01-26T06:17:45.411Z,100840.50
2023-01-26T06:20:15.238Z,100851.00
2023-01-26T06:22:50.103Z,100849.97
2023-01-26T06:25:17.697Z,100849.63
2023-01-26T06:27:44.964Z,100851.50
2023-01-26T06:30:26.580Z,100851.69
2023-01-26T06:32:59.954Z,100854.38
2023-01-26T06:35:28.388Z,100841.41
2023-01-26T06:37:58.390Z,100847.63
2023-01-26T06:40:25.947Z,100842.78
2023-01-26T06:42:53.213Z,100844.22
2023-01-26T06:45:21.181Z,100843.03
2023-01-26T06:47:51.435Z,100851.09
2023-01-26T06:50:25.435Z,100855.75
2023-01-26T06:52:56.204Z,100854.16
2023-01-26T06:55:41.888Z,100838.75
2023-01-26T06:58:27.790Z,100843.03
2023-01-26T07:01:22.747Z,100841.75
2023-01-26T07:03:50.960Z,100830.28
2023-01-26T07:06:18.617Z,100832.00
2023-01-26T07:08:46.495Z,100837.16
2023-01-26T07:11:15.163Z,100830.22
2023-01-26T07:13:42.399Z,100833.00
2023-01-26T07:16:13.219Z,100817.88
2023-01-26T07:18:40.712Z,100828.91
2023-01-26T07:21:12.269Z,100830.28
2023-01-26T07:23:39.555Z,100818.69
2023-01-26T07:26:07.493Z,100836.06
2023-01-26T07:28:34.762Z,100828.88
2023-01-26T07:31:03.958Z,100828.09
2023-01-26T07:33:32.548Z,100820.97
2023-01-26T07:36:01.535Z,100827.00
2023-01-26T07:38:29.265Z,100828.38
2023-01-26T07:40:57.086Z,100818.31
2023-01-26T07:43:24.681Z,100823.72
2023-01-26T07:45:54.946Z,100823.47
2023-01-26T07:48:23.791Z,100815.69
2023-01-26T07:50:51.702Z,100817.81
2023-01-26T07:53:19.490Z,100825.56
2023-01-26T07:55:47.542Z,100811.00
2023-01-26T07:58:14.873Z,100807.97
2023-01-26T08:00:42.490Z,100795.44
2023-01-26T08:03:09.720Z,100796.19
2023-01-26T08:05:38.630Z,100805.22
2023-01-26T08:08:06.276Z,100809.63
2023-01-26T08:10:33.958Z,100802.94
2023-01-26T08:13:01.636Z,100793.97
2023-01-26T08:15:29.533Z,100792.53
2023-01-26T08:17:56.825Z,100800.25
2023-01-26T08:20:24.370Z,100792.81
2023-01-26T08:22:51.594Z,100788.31
2023-01-26T08:25:19.125Z,100775.91
2023-01-26T08:27:46.420Z,100783.44
2023-01-26T08:30:15.111Z,100782.72
2023-01-26T08:32:42.336Z,100782.28
2023-01-26T08:35:10.338Z,100787.28
2023-01-26T08:37:37.734Z,100783.97
2023-01-26T08:40:06.357Z,100792.22
2023-01-26T08:42:33.579Z,100791.13
2023-01-26T08:45:01.187Z,100784.84
2023-01-26T08:47:28.581Z,100794.31
2023-01-26T08:49:56.129Z,100784.44
2023-01-26T08:52:23.412Z,100786.03
2023-01-26T08:54:50.991Z,100791.59
2023-01-26T08:57:18.382Z,100781.25
2023-01-26T08:59:45.898Z,100776.97
2023-01-26T09:02:13.204Z,100791.75
2023-01-26T09:04:40.760Z,100778.53
2023-01-26T09:07:08.073Z,100778.19
2023-01-26T09:09:35.674Z,100779.94
2023-01-26T09:12:03.070Z,100779.47
2023-01-26T09:14:30.615Z,100770.28
2023-01-26T09:16:57.912Z,100778.53
2023-01-26T09:19:25.500Z,100772.06
2023-01-26T09:21:53.974Z,100774.69
2023-01-26T09:24:24.768Z,100764.38
2023-01-26T09:26:52.197Z,100767.56
2023-01-26T09:29:20.384Z,100764.72
2023-01-26T09:31:47.690Z,100767.06
2023-01-26T09:34:15.324Z,100778.31
2023-01-26T09:36:42.574Z,100770.16
2023-01-26T09:39:10.517Z,100763.88
2023-01-26T09:41:51.160Z,100764.63
2023-01-26T09:44:27.184Z,100761.53
2023-01-26T09:47:35.654Z,100764.97
2023-01-26T09:50:11.600Z,100763.25
2023-01-26T09:53:13.757Z,100768.84
2023-01-26T09:55:42.419Z,100755.53
2023-01-26T09:58:35.735Z,100760.56
2023-01-26T10:01:04.894Z,100763.72
2023-01-26T10:03:46.777Z,100753.38
2023-01-26T10:06:28.584Z,100758.91
2023-01-26T10:09:30.216Z,100767.00
2023-01-26T10:12:04.758Z,100774.44
2023-01-26T10:14:44.391Z,100779.53
2023-01-26T10:17:20.107Z,100777.09
2023-01-26T10:19:55.055Z,100768.50
2023-01-26T10:22:38.397Z,100762.84
2023-01-26T10:25:15.793Z,100756.88
2023-01-26T10:27:46.001Z,100748.84
2023-01-26T10:30:19.173Z,100748.25
2023-01-26T10:32:50.878Z,100754.84
2023-01-26T10:35:23.861Z,100756.47
2023-01-26T10:37:56.334Z,100744.97
2023-01-26T10:40:23.784Z,100757.00
2023-01-26T10:42:59.621Z,100750.28
2023-01-26T10:45:32.694Z,100753.69
2023-01-26T10:48:16.484Z,100749.00
2023-01-26T10:50:44.325Z,100750.13
2023-01-26T10:53:19.140Z,100759.06
2023-01-26T10:55:58.627Z,100758.69
2023-01-26T10:58:44.946Z,100759.41
2023-01-26T11:01:14.783Z,100750.69
2023-01-26T11:03:43.465Z,100754.22
2023-01-26T11:06:18.648Z,100756.44
2023-01-26T11:08:46.488Z,100750.53
2023-01-26T11:11:30.110Z,100755.91
2023-01-26T11:14:18.913Z,100749.09
2023-01-26T11:17:15.156Z,100742.91
2023-01-26T11:20:15.457Z,100738.09
2023-01-26T11:23:25.974Z,100742.69
2023-01-26T11:26:16.976Z,100740.59
2023-01-26T11:29:18.131Z,100738.22
2023-01-26T11:31:57.759Z,100730.06
2023-01-26T11:34:37.814Z,100732.59
2023-01-26T11:37:38.840Z,100720.00
2023-01-26T11:40:26.751Z,100733.53
2023-01-26T11:43:08.504Z,100735.09
2023-01-26T11:46:06.116Z,100723.44
2023-01-26T11:49:00.029Z,100720.91
2023-01-26T11:51:30.294Z,100716.56
2023-01-26T11:54:14.085Z,100708.63
2023-01-26T11:56:53.155Z,100718.56
2023-01-26T11:59:38.905Z,100711.69
2023-01-26T12:02:29.103Z,100701.72
2023-01-26T12:05:01.088Z,100698.63
2023-01-26T12:07:33.705Z,100698.09
2023-01-26T12:10:03.680Z,100697.84
2023-01-26T12:12:40.462Z,100702.25
2023-01-26T12:15:20.331Z,100696.75
2023-01-26T12:18:11.651Z,100707.09
2023-01-26T12:20:45.641Z,100702.31
2023-01-26T12:23:31.517Z,100697.72
2023-01-26T12:26:05.785Z,100682.75
2023-01-26T12:29:06.443Z,100687.56
2023-01-26T12:31:46.180Z,100675.44
2023-01-26T12:34:14.505Z,100672.53
2023-01-26T12:37:32.802Z,100670.72
2023-01-26T12:40:24.974Z,100665.41
2023-01-26T12:42:58.697Z,100660.97
2023-01-26T12:45:33.655Z,100652.72
2023-01-26T12:48:36.800Z,100662.25
2023-01-26T12:51:15.461Z,100658.72
2023-01-26T12:54:11.175Z,100659.94
2023-01-26T12:56:43.452Z,100659.09
2023-01-26T12:59:47.335Z,100654.13
2023-01-26T13:02:15.713Z,100651.59
2023-01-26T13:04:47.157Z,100653.69
2023-01-26T13:07:38.457Z,100657.34
2023-01-26T13:10:15.447Z,100633.09
2023-01-26T13:12:54.964Z,100655.09
2023-01-26T13:15:25.675Z,100634.94
2023-01-26T13:18:01.444Z,100640.53
2023-01-26T13:20:45.826Z,100639.16
2023-01-26T13:23:45.097Z,100642.97
2023-01-26T13:26:20.359Z,100647.91
2023-01-26T13:28:49.183Z,100639.31
2023-01-26T13:31:34.235Z,100641.41
2023-01-26T13:34:08.085Z,100643.94
2023-01-26T13:36:38.825Z,100633.31
2023-01-26T13:39:14.466Z,100631.81
2023-01-26T13:41:48.587Z,100644.03
2023-01-26T13:44:37.299Z,100640.81
2023-01-26T13:47:11.765Z,100635.66
2023-01-26T13:49:41.461Z,100625.66
2023-01-26T13:52:25.718Z,100634.50
2023-01-26T13:54:57.840Z,100627.34
2023-01-26T13:57:30.770Z,100643.22
2023-01-26T14:00:00.378Z,100640.53
2023-01-26T14:02:31.451Z,100654.19
2023-01-26T14:05:00.535Z,100658.25
2023-01-26T14:07:36.135Z,100649.09
2023-01-26T14:10:03.944Z,100656.84
2023-01-26T14:12:36.099Z,100649.47
2023-01-26T14:15:07.502Z,100646.97
2023-01-26T14:17:50.729Z,100645.09
2023-01-26T14:20:42.322Z,100651.34
2023-01-26T14:23:19.679Z,100654.09
2023-01-26T14:25:58.307Z,100653.13
2023-01-26T14:28:34.762Z,100652.34
2023-01-26T14:31:24.256Z,100661.69
2023-01-26T14:33:57.903Z,100665.25
2023-01-26T14:36:27.973Z,100662.38
2023-01-26T14:38:57.096Z,100669.13
2023-01-26T14:41:32.341Z,100658.19
2023-01-26T14:44:06.100Z,100669.75
2023-01-26T14:46:55.782Z,100669.19
2023-01-26T14:49:57.062Z,100671.19
2023-01-26T14:52:27.072Z,100669.19
2023-01-26T14:54:57.674Z,100663.63
2023-01-26T14:57:27.872Z,100666.56
2023-01-26T14:59:59.105Z,100667.66
2023-01-26T15:02:37.345Z,100654.53
2023-01-26T15:05:14.542Z,100666.78
2023-01-26T15:07:51.216Z,100669.63
2023-01-26T15:10:27.732Z,100666.31
2023-01-26T15:13:00.089Z,100658.75
2023-01-26T15:15:37.345Z,100659.69
2023-01-26T15:18:13.563Z,100652.19
2023-01-26T15:20:44.509Z,100649.59
2023-01-26T15:23:24.533Z,100654.34
2023-01-26T15:25:52.469Z,100656.81
2023-01-26T15:28:25.862Z,100658.25
2023-01-26T15:30:56.397Z,100663.03
2023-01-26T15:33:50.499Z,100676.66
2023-01-26T15:36:42.703Z,100674.13
2023-01-26T15:39:20.503Z,100670.53
2023-01-26T15:42:03.447Z,100672.78
2023-01-26T15:44:30.838Z,100673.13
2023-01-26T15:46:59.373Z,100673.13
2023-01-26T15:49:26.741Z,100676.66
2023-01-26T15:51:54.299Z,100658.25
2023-01-26T15:54:21.688Z,100654.34
2023-01-26T15:56:49.422Z,100661.91
2023-01-26T15:59:16.713Z,100670.06
2023-01-26T16:01:44.935Z,100663.34
2023-01-26T16:04:13.597Z,100670.56
2023-01-26T16:06:41.365Z,100658.97
2023-01-26T16:09:08.595Z,100668.56
2023-01-26T16:11:41.312Z,100668.13
2023-01-26T16:14:13.280Z,100653.69
2023-01-26T16:16:41.246Z,100670.53
2023-01-26T16:19:09.595Z,100664.13
2023-01-26T16:21:41.021Z,100676.16
2023-01-26T16:24:10.524Z,100664.50
2023-01-26T16:26:38.301Z,100653.31
2023-01-26T16:29:06.419Z,100660.53
2023-01-26T16:31:36.791Z,100660.78
2023-01-26T16:34:04.456Z,100661.16
2023-01-26T16:36:32.064Z,100659.19
2023-01-26T16:38:59.334Z,100648.97
2023-01-26T16:41:29.790Z,100658.41
2023-01-26T16:44:01.644Z,100655.00
2023-01-26T16:46:30.945Z,100653.69
2023-01-26T16:48:58.457Z,100659.13
2023-01-26T16:51:30.439Z,100669.44
2023-01-26T16:53:59.511Z,100671.03
2023-01-26T16:56:28.526Z,100657.09
2023-01-26T16:58:55.772Z,100660.28
2023-01-26T17:01:28.436Z,100665.97
2023-01-26T17:03:56.588Z,100672.06
2023-01-26T17:06:24.931Z,100663.72
2023-01-26T17:08:52.932Z,100672.13
2023-01-26T17:11:23.248Z,100674.56
2023-01-26T17:13:50.742Z,100674.00
2023-01-26T17:16:25.388Z,100675.16
2023-01-26T17:18:52.895Z,100672.28
2023-01-26T17:21:21.894Z,100681.81
2023-01-26T17:23:50.571Z,100666.41
2023-01-26T17:26:19.868Z,100674.28
2023-01-26T17:28:49.374Z,100670.97
2023-01-26T17:31:19.701Z,100668.28
2023-01-26T17:33:48.976Z,100671.75
2023-01-26T17:36:19.080Z,100676.59
2023-01-26T17:38:47.975Z,100670.28
2023-01-26T17:41:16.331Z,100678.22
2023-01-26T17:43:43.858Z,100676.38
2023-01-26T17:46:20.002Z,100672.84
2023-01-26T17:48:48.661Z,100661.97
2023-01-26T17:51:19.068Z,100681.00
2023-01-26T17:53:49.605Z,100677.91
2023-01-26T17:56:20.425Z,100681.44
2023-01-26T17:58:53.391Z,100680.59
2023-01-26T18:01:23.063Z,100684.72
2023-01-26T18:03:50.981Z,100689.53
2023-01-26T18:06:18.500Z,100685.84
2023-01-26T18:08:45.817Z,100677.97
2023-01-26T18:11:15.440Z,100684.66
2023-01-26T18:13:44.431Z,100680.66
2023-01-26T18:16:15.841Z,100672.13
2023-01-26T18:18:43.503Z,100681.00
2023-01-26T18:21:17.289Z,100685.13
2023-01-26T18:23:46.563Z,100669.56
2023-01-26T18:26:15.299Z,100679.56
2023-01-26T18:28:43.835Z,100697.47
2023-01-26T18:31:14.344Z,100691.00
2023-01-26T18:33:41.699Z,100682.88
2023-01-26T18:36:12.171Z,100688.88
2023-01-26T18:38:40.910Z,100693.94
2023-01-26T18:41:13.113Z,100691.16
2023-01-26T18:43:41.128Z,100692.72
2023-01-26T18:46:09.722Z,100696.03
2023-01-26T18:48:37.097Z,100690.75
2023-01-26T18:51:05.140Z,100698.47
2023-01-26T18:53:33.553Z,100679.97
2023-01-26T18:56:06.787Z,100682.78
2023-01-26T18:58:35.357Z,100680.78
2023-01-26T19:01:09.675Z,100680.84
2023-01-26T19:03:38.048Z,100681.94
2023-01-26T19:06:06.059Z,100686.72
2023-01-26T19:08:34.571Z,100683.38
2023-01-26T19:11:08.855Z,100682.00
2023-01-26T19:13:36.299Z,100683.00
2023-01-26T19:16:03.999Z,100675.44
2023-01-26T19:18:31.273Z,100680.25
2023-01-26T19:21:00.620Z,100672.69
2023-01-26T19:23:28.724Z,100678.66
2023-01-26T19:25:56.990Z,100674.03
2023-01-26T19:28:24.294Z,100670.78
2023-01-26T19:30:51.866Z,100663.50
2023-01-26T19:33:25.028Z,100667.22
2023-01-26T19:35:52.814Z,100664.03
2023-01-26T19:38:21.282Z,100656.97
2023-01-26T19:40:50.583Z,100657.41
2023-01-26T19:43:21.674Z,100651.25
2023-01-26T19:45:54.047Z,100666.84
2023-01-26T19:48:23.814Z,100663.84
2023-01-26T19:51:08.308Z,100657.34
2023-01-26T19:53:41.283Z,100665.56
2023-01-26T19:56:29.141Z,100654.81
2023-01-26T19:59:01.843Z,100663.31
2023-01-26T20:01:30.704Z,100669.72
2023-01-26T20:04:01.285Z,100663.84
2023-01-26T20:06:32.844Z,100675.22
2023-01-26T20:09:03.572Z,100673.22
2023-01-26T20:11:31.524Z,100672.00
2023-01-26T20:14:05.885Z,100680.28
2023-01-26T20:16:34.496Z,100684.22
2023-01-26T20:19:02.541Z,100685.53
2023-01-26T20:21:31.395Z,100684.00
2023-01-26T20:24:05.099Z,100682.38
2023-01-26T20:26:34.948Z,100676.50
2023-01-26T20:29:03.350Z,100678.09
2023-01-26T20:31:32.751Z,100681.41
2023-01-26T20:34:01.813Z,100683.88
2023-01-26T20:36:30.215Z,100683.78
2023-01-26T20:38:57.775Z,100697.47
2023-01-26T20:41:29.009Z,100686.81
2023-01-26T20:44:01.706Z,100686.75
2023-01-26T20:46:32.285Z,100702.53
2023-01-26T20:49:00.353Z,100700.59
2023-01-26T20:51:30.847Z,100690.00
2023-01-26T20:53:58.433Z,100693.31
2023-01-26T20:56:26.907Z,100693.53
2023-01-26T20:58:55.589Z,100700.97
2023-01-26T21:01:24.100Z,100697.91
2023-01-26T21:03:51.612Z,100707.41
2023-01-26T21:06:21.001Z,100686.28
2023-01-26T21:08:49.690Z,100691.69
2023-01-26T21:11:17.753Z,100689.88
2023-01-26T21:13:45.442Z,100690.38
2023-01-26T21:16:15.350Z,100692.03
2023-01-26T21:18:43.226Z,100689.53
2023-01-26T21:21:13.380Z,100677.50
2023-01-26T21:23:40.708Z,100680.78
2023-01-26T21:26:12.394Z,100690.59
2023-01-26T21:28:39.807Z,100688.03
2023-01-26T21:31:10.166Z,100678.59
2023-01-26T21:33:40.089Z,100686.59
2023-01-26T21:36:09.394Z,100689.09
2023-01-26T21:38:41.901Z,100680.88
2023-01-26T21:41:37.283Z,100681.94
2023-01-26T21:44:13.198Z,100691.06
2023-01-26T21:46:41.357Z,100686.28
2023-01-26T21:49:09.955Z,100687.88
2023-01-26T21:51:56.221Z,100685.44
2023-01-26T21:54:23.639Z,100697.69
2023-01-26T21:56:51.603Z,100693.53
2023-01-26T21:59:19.792Z,100690.03
2023-01-26T22:01:50.251Z,100695.31
2023-01-26T22:04:29.733Z,100700.75
2023-01-26T22:06:58.143Z,100696.53
2023-01-26T22:09:25.768Z,100690.25
2023-01-26T22:11:53.328Z,100690.25
2023-01-26T22:14:24.044Z,100678.72
2023-01-26T22:16:51.929Z,100686.53
2023-01-26T22:19:19.285Z,100683.75
2023-01-26T22:21:46.928Z,100684.47
2023-01-26T22:24:14.849Z,100685.94
2023-01-26T22:26:42.618Z,100694.53
2023-01-26T22:29:12.710Z,100684.16
2023-01-26T22:31:40.325Z,100696.31
2023-01-26T22:34:07.662Z,100685.00
2023-01-26T22:36:35.287Z,100691.91
2023-01-26T22:39:02.630Z,100690.22
2023-01-26T22:41:30.729Z,100702.47
2023-01-26T22:44:00.173Z,100691.25
2023-01-26T22:46:29.770Z,100699.91
2023-01-26T22:48:58.804Z,100687.59
2023-01-26T22:51:29.388Z,100688.16
2023-01-26T22:53:58.362Z,100680.16
2023-01-26T22:56:27.040Z,100690.59
2023-01-26T22:58:59.530Z,100692.94
2023-01-26T23:01:30.168Z,100700.88
2023-01-26T23:03:59.678Z,100691.53
2023-01-26T23:06:27.700Z,100691.19
2023-01-26T23:08:55.391Z,100685.25
2023-01-26T23:11:28.396Z,100695.31
2023-01-26T23:13:57.693Z,100694.53
2023-01-26T23:16:25.878Z,100687.66
2023-01-26T23:18:54.751Z,100684.88
2023-01-26T23:21:23.364Z,100693.44
2023-01-26T23:23:50.707Z,100697.03
2023-01-26T23:26:18.634Z,100697.47
2023-01-26T23:28:46.253Z,100689.38
2023-01-26T23:31:16.266Z,100690.03
2023-01-26T23:33:43.625Z,100696.75
2023-01-26T23:36:13.555Z,100688.81
2023-01-26T23:38:41.397Z,100681.00
2023-01-26T23:41:08.912Z,100681.13
2023-01-26T23:43:36.714Z,100685.50
2023-01-26T23:46:07.253Z,100691.44
2023-01-26T23:48:34.785Z,100686.16
2023-01-26T23:51:05.851Z,100697.03
2023-01-26T23:53:34.047Z,100684.66
2023-01-26T23:56:06.880Z,100678.66
2023-01-26T23:58:34.312Z,100680.41
